createdAt,value
2019-05-05T00:01:45.106Z,3.21
2019-05-05T00:04:36.216Z,3.29
2019-05-05T00:07:05.042Z,3.24
2019-05-05T00:09:34.707Z,3.19
2019-05-05T00:12:21.618Z,3.27
2019-05-05T00:15:06.660Z,3.29
2019-05-05T00:17:35.563Z,3.32
2019-05-05T00:20:05.305Z,3.29
2019-05-05T00:22:35.039Z,3.29
2019-05-05T00:25:05.076Z,3.27
2019-05-05T00:27:34.706Z,3.27
2019-05-05T00:30:06.573Z,3.22
2019-05-05T00:32:35.371Z,3.20
2019-05-05T00:35:14.875Z,3.19
2019-05-05T00:37:45.079Z,3.24
2019-05-05T00:40:14.298Z,3.21
2019-05-05T00:42:43.093Z,3.21
2019-05-05T00:45:12.022Z,3.22
2019-05-05T00:47:54.272Z,3.21
2019-05-05T00:50:25.265Z,3.21
2019-05-05T00:52:55.078Z,3.21
2019-05-05T00:55:24.456Z,3.20
2019-05-05T00:57:54.835Z,3.19
2019-05-05T01:00:47.051Z,3.18
2019-05-05T01:03:28.086Z,3.17
2019-05-05T01:06:25.665Z,3.17
2019-05-05T01:08:55.085Z,3.16
2019-05-05T01:11:25.092Z,3.21
2019-05-05T01:13:56.237Z,3.18
2019-05-05T01:16:25.470Z,3.20
2019-05-05T01:18:55.373Z,3.21
2019-05-05T01:21:24.595Z,3.12
2019-05-05T01:23:54.837Z,3.17
2019-05-05T01:26:24.901Z,3.16
2019-05-05T01:28:56.173Z,3.19
2019-05-05T01:31:25.282Z,3.20
2019-05-05T01:34:14.952Z,3.18
2019-05-05T01:36:45.148Z,3.18
2019-05-05T01:39:39.424Z,3.17
2019-05-05T01:42:14.316Z,3.19
2019-05-05T01:44:44.782Z,3.20
2019-05-05T01:47:14.798Z,3.19
2019-05-05T01:49:45.270Z,3.13
2019-05-05T01:52:15.009Z,3.11
2019-05-05T01:54:44.732Z,3.16
2019-05-05T01:57:14.792Z,3.13
2019-05-05T01:59:44.879Z,3.15
2019-05-05T02:02:14.636Z,3.12
2019-05-05T02:04:44.884Z,3.09
2019-05-05T02:07:14.457Z,3.04
2019-05-05T02:09:44.847Z,3.01
2019-05-05T02:12:15.841Z,3.02
2019-05-05T02:14:44.609Z,3.09
2019-05-05T02:17:14.455Z,3.05
2019-05-05T02:19:44.322Z,3.06
2019-05-05T02:22:14.713Z,3.01
2019-05-05T02:24:44.574Z,3.05
2019-05-05T02:27:14.591Z,3.03
2019-05-05T02:30:06.160Z,3.01
2019-05-05T02:32:40.089Z,3.02
2019-05-05T02:35:11.645Z,3.01
2019-05-05T02:37:40.566Z,2.96
2019-05-05T02:40:10.467Z,2.98
2019-05-05T02:42:39.806Z,2.95
2019-05-05T02:45:11.209Z,2.93
2019-05-05T02:47:57.689Z,2.98
2019-05-05T02:50:46.555Z,2.94
2019-05-05T02:53:04.011Z,2.94
2019-05-05T02:55:34.806Z,2.97
2019-05-05T02:58:03.979Z,2.92
2019-05-05T03:01:00.651Z,2.93
2019-05-05T03:03:31.817Z,2.92
2019-05-05T03:06:00.877Z,2.91
2019-05-05T03:08:30.855Z,2.94
2019-05-05T03:11:01.081Z,2.94
2019-05-05T03:13:31.080Z,2.90
2019-05-05T03:16:14.192Z,2.88
2019-05-05T03:18:45.919Z,2.90
2019-05-05T03:21:15.032Z,2.87
2019-05-05T03:23:44.153Z,2.87
2019-05-05T03:26:14.057Z,2.85
2019-05-05T03:28:47.236Z,2.84
2019-05-05T03:31:17.313Z,2.86
2019-05-05T03:33:46.726Z,2.82
2019-05-05T03:36:15.887Z,2.81
2019-05-05T03:38:44.902Z,2.77
2019-05-05T03:41:21.310Z,2.77
2019-05-05T03:44:27.309Z,2.75
2019-05-05T03:46:56.373Z,2.75
2019-05-05T03:49:25.427Z,2.73
2019-05-05T03:51:54.491Z,2.72
2019-05-05T03:54:23.939Z,2.70
2019-05-05T03:57:07.942Z,2.77
2019-05-05T03:59:37.852Z,2.73
2019-05-05T04:02:14.267Z,2.74
2019-05-05T04:04:46.594Z,2.74
2019-05-05T04:07:15.484Z,2.77
2019-05-05T04:09:45.027Z,2.77
2019-05-05T04:12:14.484Z,2.75
2019-05-05T04:14:45.407Z,2.84
2019-05-05T04:17:48.692Z,2.85
2019-05-05T04:20:29.039Z,2.88
2019-05-05T04:22:58.340Z,2.93
2019-05-05T04:25:27.342Z,2.97
2019-05-05T04:27:56.315Z,3.01
2019-05-05T04:30:25.124Z,2.99
2019-05-05T04:32:54.707Z,3.03
2019-05-05T04:35:24.603Z,3.04
2019-05-05T04:37:54.284Z,3.05
2019-05-05T04:40:24.083Z,3.06
2019-05-05T04:42:54.704Z,3.06
2019-05-05T04:45:25.694Z,3.08
2019-05-05T04:47:58.979Z,3.09
2019-05-05T04:51:02.287Z,3.06
2019-05-05T04:53:43.836Z,3.08
2019-05-05T04:56:14.140Z,3.17
2019-05-05T04:58:44.018Z,3.15
2019-05-05T05:01:13.679Z,3.19
2019-05-05T05:03:59.086Z,3.22
2019-05-05T05:06:34.197Z,3.24
2019-05-05T05:09:04.061Z,3.17
2019-05-05T05:11:33.657Z,3.23
2019-05-05T05:14:03.893Z,3.21
2019-05-05T05:16:32.818Z,3.21
2019-05-05T05:19:01.923Z,3.22
2019-05-05T05:21:30.853Z,3.20
2019-05-05T05:23:59.814Z,3.17
2019-05-05T05:26:29.081Z,3.25
2019-05-05T05:28:57.990Z,3.29
2019-05-05T05:31:26.845Z,3.32
2019-05-05T05:33:56.125Z,3.40
2019-05-05T05:36:25.082Z,3.45
2019-05-05T05:38:56.200Z,3.48
2019-05-05T05:41:47.409Z,3.50
2019-05-05T05:44:26.378Z,3.51
2019-05-05T05:47:17.061Z,3.58
2019-05-05T05:49:58.050Z,3.67
2019-05-05T05:52:26.933Z,3.70
2019-05-05T05:54:55.760Z,3.88
2019-05-05T05:57:24.638Z,4.02
2019-05-05T05:59:54.870Z,4.15
2019-05-05T06:02:24.248Z,4.27
2019-05-05T06:04:53.965Z,4.38
2019-05-05T06:07:24.497Z,4.57
2019-05-05T06:09:54.171Z,4.82
2019-05-05T06:12:24.560Z,4.95
2019-05-05T06:14:54.557Z,5.16
2019-05-05T06:17:23.822Z,5.41
2019-05-05T06:19:53.462Z,5.61
2019-05-05T06:22:29.396Z,6.05
2019-05-05T06:24:54.085Z,6.35
2019-05-05T06:27:23.625Z,6.59
2019-05-05T06:29:54.262Z,6.86
2019-05-05T06:32:26.484Z,7.07
2019-05-05T06:34:55.500Z,7.36
2019-05-05T06:37:24.761Z,7.46
2019-05-05T06:39:56.267Z,7.76
2019-05-05T06:42:43.545Z,8.03
2019-05-05T06:45:23.970Z,7.54
2019-05-05T06:47:53.704Z,7.22
2019-05-05T06:50:24.281Z,7.10
2019-05-05T06:52:54.299Z,7.05
2019-05-05T06:55:25.274Z,6.92
2019-05-05T06:57:54.478Z,6.52
2019-05-05T07:00:28.585Z,6.68
2019-05-05T07:05:34.118Z,8.40
2019-05-05T07:08:04.470Z,9.09
2019-05-05T07:10:33.992Z,8.96
2019-05-05T07:13:05.023Z,8.82
2019-05-05T07:15:34.387Z,8.75
2019-05-05T07:18:03.782Z,8.44
2019-05-05T07:20:34.694Z,8.28
2019-05-05T07:25:42.754Z,7.50
2019-05-05T07:28:10.195Z,7.10
2019-05-05T07:30:39.737Z,6.84
2019-05-05T07:33:11.195Z,6.60
2019-05-05T07:35:55.999Z,6.52
2019-05-05T07:38:16.467Z,6.34
2019-05-05T07:43:28.654Z,6.27
2019-05-05T07:45:57.699Z,6.20
2019-05-05T07:48:26.811Z,6.28
2019-05-05T07:51:01.482Z,6.41
2019-05-05T07:53:26.983Z,6.47
2019-05-05T07:55:54.996Z,6.52
2019-05-05T07:58:28.924Z,6.61
2019-05-05T08:00:58.226Z,6.57
2019-05-05T08:03:27.907Z,6.50
2019-05-05T08:05:57.210Z,6.48
2019-05-05T08:08:26.376Z,6.48
2019-05-05T08:10:55.622Z,6.43
2019-05-05T08:13:24.841Z,6.48
2019-05-05T08:15:59.803Z,6.50
2019-05-05T08:18:46.891Z,6.62
2019-05-05T08:21:16.610Z,6.65
2019-05-05T08:24:05.979Z,6.62
2019-05-05T08:26:50.141Z,6.67
2019-05-05T08:29:34.588Z,6.72
2019-05-05T08:32:16.160Z,6.72
2019-05-05T08:34:56.856Z,6.81
2019-05-05T08:37:16.579Z,7.25
2019-05-05T08:39:47.038Z,7.80
2019-05-05T08:42:17.273Z,7.66
2019-05-05T08:44:46.848Z,7.34
2019-05-05T08:47:16.121Z,7.28
2019-05-05T08:49:45.416Z,7.37
2019-05-05T08:54:56.160Z,7.07
2019-05-05T08:57:26.809Z,7.02
2019-05-05T08:59:55.890Z,6.85
2019-05-05T09:02:24.881Z,6.95
2019-05-05T09:04:54.162Z,7.10
2019-05-05T09:07:26.523Z,7.20
2019-05-05T09:09:55.930Z,7.26
2019-05-05T09:12:25.032Z,7.36
2019-05-05T09:14:54.063Z,7.49
2019-05-05T09:17:24.366Z,7.49
2019-05-05T09:19:53.855Z,7.48
2019-05-05T09:22:26.116Z,7.35
2019-05-05T09:25:04.392Z,7.36
2019-05-05T09:30:11.165Z,7.17
2019-05-05T09:32:40.614Z,7.09
2019-05-05T09:35:10.151Z,7.03
2019-05-05T09:37:39.579Z,6.91
2019-05-05T09:40:09.030Z,6.87
2019-05-05T09:42:41.918Z,6.84
2019-05-05T09:45:14.026Z,6.76
2019-05-05T09:47:46.307Z,6.85
2019-05-05T09:50:18.885Z,6.79
2019-05-05T09:52:51.090Z,6.72
2019-05-05T09:55:26.288Z,6.66
2019-05-05T09:57:56.185Z,6.62
2019-05-05T10:00:31.241Z,6.55
2019-05-05T10:03:00.609Z,6.49
2019-05-05T10:05:30.033Z,6.52
2019-05-05T10:08:06.560Z,6.58
2019-05-05T10:10:38.797Z,6.60
2019-05-05T10:13:08.466Z,6.62
2019-05-05T10:15:46.493Z,6.61
2019-05-05T10:18:33.744Z,6.78
2019-05-05T10:21:08.833Z,6.86
2019-05-05T10:23:40.879Z,7.02
2019-05-05T10:26:14.966Z,7.22
2019-05-05T10:28:45.249Z,7.29
2019-05-05T10:31:14.236Z,7.28
2019-05-05T10:33:48.855Z,7.46
2019-05-05T10:36:18.794Z,7.42
2019-05-05T10:38:51.331Z,7.26
2019-05-05T10:41:20.090Z,7.46
2019-05-05T10:43:49.152Z,7.63
2019-05-05T10:46:18.151Z,7.83
2019-05-05T10:48:46.978Z,7.99
2019-05-05T10:51:15.869Z,8.12
2019-05-05T10:53:44.660Z,8.23
2019-05-05T10:56:14.487Z,8.10
2019-05-05T10:58:44.166Z,8.13
2019-05-05T11:01:14.527Z,8.11
2019-05-05T11:03:44.683Z,8.06
2019-05-05T11:06:14.880Z,8.05
2019-05-05T11:08:45.177Z,8.01
2019-05-05T11:11:14.149Z,8.00
2019-05-05T11:13:45.567Z,8.07
2019-05-05T11:16:14.509Z,8.05
2019-05-05T11:18:43.352Z,7.99
2019-05-05T11:21:14.322Z,8.09
2019-05-05T11:23:44.746Z,8.19
2019-05-05T11:26:14.316Z,8.28
2019-05-05T11:28:44.538Z,8.46
2019-05-05T11:31:13.801Z,8.65
2019-05-05T11:33:54.182Z,8.78
2019-05-05T11:36:30.255Z,8.98
2019-05-05T11:38:59.254Z,8.95
2019-05-05T11:41:29.964Z,8.78
2019-05-05T11:44:04.117Z,8.64
2019-05-05T11:46:34.918Z,8.39
2019-05-05T11:49:24.293Z,8.14
2019-05-05T11:51:54.201Z,8.01
2019-05-05T11:54:28.550Z,7.87
2019-05-05T11:56:58.601Z,7.75
2019-05-05T11:59:27.656Z,7.72
2019-05-05T12:01:56.951Z,7.61
2019-05-05T12:04:26.003Z,7.51
2019-05-05T12:06:58.118Z,7.57
2019-05-05T12:09:39.884Z,7.68
2019-05-05T12:12:08.990Z,7.69
2019-05-05T12:14:38.480Z,7.73
2019-05-05T12:17:08.387Z,7.84
2019-05-05T12:19:37.491Z,7.81
2019-05-05T12:22:08.887Z,7.57
2019-05-05T12:24:44.320Z,7.72
2019-05-05T12:27:30.649Z,7.89
2019-05-05T12:30:09.411Z,8.12
2019-05-05T12:32:40.523Z,8.32
2019-05-05T12:35:09.265Z,8.61
2019-05-05T12:37:44.543Z,8.90
2019-05-05T12:40:14.289Z,9.16
2019-05-05T12:42:43.988Z,9.54
2019-05-05T12:45:16.567Z,9.75
2019-05-05T12:50:24.507Z,9.83
2019-05-05T12:52:54.887Z,9.71
2019-05-05T12:55:38.341Z,10.14
2019-05-05T12:57:57.512Z,10.32
2019-05-05T13:00:29.903Z,10.52
2019-05-05T13:02:58.802Z,10.49
2019-05-05T13:05:27.661Z,10.55
2019-05-05T13:07:56.460Z,10.48
2019-05-05T13:10:26.648Z,10.40
2019-05-05T13:12:55.566Z,10.15
2019-05-05T13:15:25.917Z,10.11
2019-05-05T13:17:55.213Z,9.92
2019-05-05T13:20:36.874Z,9.79
2019-05-05T13:23:25.246Z,9.52
2019-05-05T13:26:04.400Z,8.78
2019-05-05T13:28:34.430Z,8.61
2019-05-05T13:31:04.716Z,8.45
2019-05-05T13:33:37.066Z,7.91
2019-05-05T13:36:04.755Z,7.60
2019-05-05T13:38:34.395Z,7.49
2019-05-05T13:41:03.814Z,7.43
2019-05-05T13:43:34.224Z,7.53
2019-05-05T13:46:17.815Z,7.60
2019-05-05T13:48:46.769Z,7.61
2019-05-05T13:51:16.171Z,7.65
2019-05-05T13:53:45.198Z,7.65
2019-05-05T13:56:15.336Z,7.78
2019-05-05T13:58:44.527Z,7.96
2019-05-05T14:01:14.480Z,8.04
2019-05-05T14:03:44.701Z,8.24
2019-05-05T14:06:14.000Z,8.42
2019-05-05T14:08:44.782Z,8.59
2019-05-05T14:11:17.022Z,8.88
2019-05-05T14:13:48.528Z,9.24
2019-05-05T14:16:16.617Z,9.59
2019-05-05T14:18:45.495Z,9.68
2019-05-05T14:21:15.411Z,9.75
2019-05-05T14:24:03.821Z,9.71
2019-05-05T14:26:35.181Z,9.35
2019-05-05T14:29:04.277Z,9.20
2019-05-05T14:31:36.665Z,9.04
2019-05-05T14:34:13.972Z,8.82
2019-05-05T14:37:11.059Z,8.77
2019-05-05T14:39:39.828Z,8.67
2019-05-05T14:42:09.279Z,8.62
2019-05-05T14:44:38.325Z,8.65
2019-05-05T14:47:07.216Z,8.68
2019-05-05T14:49:36.079Z,8.69
2019-05-05T14:52:06.069Z,8.72
2019-05-05T14:54:34.982Z,8.69
2019-05-05T14:57:04.534Z,8.71
2019-05-05T14:59:34.078Z,8.69
2019-05-05T15:02:04.226Z,8.61
2019-05-05T15:04:37.073Z,8.60
2019-05-05T15:07:15.320Z,8.51
2019-05-05T15:09:54.631Z,8.45
2019-05-05T15:12:28.485Z,8.40
2019-05-05T15:14:57.333Z,8.36
2019-05-05T15:17:26.552Z,8.33
2019-05-05T15:19:55.330Z,8.30
2019-05-05T15:22:24.245Z,8.30
2019-05-05T15:24:53.706Z,8.30
2019-05-05T15:27:24.221Z,8.28
2019-05-05T15:29:54.300Z,8.26
2019-05-05T15:32:24.315Z,8.26
2019-05-05T15:34:54.523Z,8.33
2019-05-05T15:37:23.893Z,8.37
2019-05-05T15:39:53.564Z,8.35
2019-05-05T15:42:22.511Z,8.37
2019-05-05T15:44:51.494Z,8.33
2019-05-05T15:47:20.395Z,8.36
2019-05-05T15:49:49.321Z,8.40
2019-05-05T15:52:20.162Z,8.43
2019-05-05T15:54:48.768Z,8.37
2019-05-05T15:57:19.062Z,8.41
2019-05-05T15:59:47.981Z,8.45
2019-05-05T16:02:16.944Z,8.50
2019-05-05T16:04:45.973Z,8.45
2019-05-05T16:07:14.971Z,8.49
2019-05-05T16:09:46.724Z,8.55
2019-05-05T16:12:14.912Z,8.57
2019-05-05T16:14:55.053Z,8.56
2019-05-05T16:17:39.578Z,8.53
2019-05-05T16:20:13.915Z,8.55
2019-05-05T16:23:10.956Z,8.51
2019-05-05T16:25:41.789Z,8.46
2019-05-05T16:28:10.937Z,8.39
2019-05-05T16:30:40.263Z,8.34
2019-05-05T16:33:09.111Z,8.31
2019-05-05T16:35:38.095Z,8.32
2019-05-05T16:38:07.470Z,8.36
2019-05-05T16:40:36.549Z,8.45
2019-05-05T16:43:05.815Z,8.51
2019-05-05T16:45:34.889Z,8.53
2019-05-05T16:48:04.036Z,8.56
2019-05-05T16:50:34.067Z,8.51
2019-05-05T16:53:05.154Z,8.46
2019-05-05T16:55:41.820Z,8.46
2019-05-05T16:58:13.767Z,8.45
2019-05-05T17:00:44.161Z,8.45
2019-05-05T17:03:13.561Z,8.46
2019-05-05T17:05:46.371Z,8.42
2019-05-05T17:08:15.390Z,8.38
2019-05-05T17:10:44.344Z,8.36
2019-05-05T17:13:38.568Z,8.35
2019-05-05T17:16:22.613Z,8.30
2019-05-05T17:18:57.291Z,8.34
2019-05-05T17:21:45.210Z,8.35
2019-05-05T17:24:18.048Z,8.38
2019-05-05T17:26:46.405Z,8.39
2019-05-05T17:29:15.676Z,8.34
2019-05-05T17:31:44.664Z,8.33
2019-05-05T17:34:13.883Z,8.32
2019-05-05T17:36:42.774Z,8.32
2019-05-05T17:39:11.810Z,8.31
2019-05-05T17:42:03.241Z,8.31
2019-05-05T17:44:48.136Z,8.26
2019-05-05T17:47:21.020Z,8.25
2019-05-05T17:50:15.892Z,8.21
2019-05-05T17:53:09.381Z,8.12
2019-05-05T17:55:41.189Z,8.05
2019-05-05T17:58:10.362Z,7.99
2019-05-05T18:00:47.146Z,7.93
2019-05-05T18:03:17.450Z,7.91
2019-05-05T18:06:29.236Z,7.82
2019-05-05T18:09:10.426Z,7.81
2019-05-05T18:11:57.061Z,7.66
2019-05-05T18:14:26.540Z,7.56
2019-05-05T18:16:55.558Z,7.50
2019-05-05T18:19:24.774Z,7.44
2019-05-05T18:21:54.761Z,7.40
2019-05-05T18:24:24.397Z,7.34
2019-05-05T18:26:55.355Z,7.34
2019-05-05T18:29:24.520Z,7.30
2019-05-05T18:31:53.727Z,7.17
2019-05-05T18:34:23.615Z,7.15
2019-05-05T18:36:54.469Z,7.16
2019-05-05T18:39:24.739Z,7.10
2019-05-05T18:42:08.049Z,7.05
2019-05-05T18:44:41.046Z,6.99
2019-05-05T18:47:17.988Z,6.96
2019-05-05T18:49:46.551Z,6.91
2019-05-05T18:52:15.539Z,6.90
2019-05-05T18:54:45.511Z,6.83
2019-05-05T18:57:14.627Z,6.77
2019-05-05T18:59:44.686Z,6.68
2019-05-05T19:02:46.107Z,6.61
2019-05-05T19:05:44.048Z,6.60
2019-05-05T19:08:51.779Z,6.41
2019-05-05T19:11:12.172Z,6.43
2019-05-05T19:13:41.592Z,6.38
2019-05-05T19:16:10.535Z,6.31
2019-05-05T19:18:39.549Z,6.26
2019-05-05T19:21:25.799Z,6.22
2019-05-05T19:23:54.986Z,6.18
2019-05-05T19:26:25.392Z,6.00
2019-05-05T19:28:54.792Z,5.92
2019-05-05T19:31:24.892Z,5.88
2019-05-05T19:33:55.918Z,5.77
2019-05-05T19:36:27.378Z,5.73
2019-05-05T19:38:56.596Z,5.70
2019-05-05T19:41:31.958Z,5.59
2019-05-05T19:44:04.509Z,5.54
2019-05-05T19:46:38.970Z,5.46
2019-05-05T19:49:16.984Z,5.39
2019-05-05T19:51:54.159Z,5.32
2019-05-05T19:54:34.046Z,5.28
2019-05-05T19:57:05.123Z,5.25
2019-05-05T19:59:36.252Z,5.20
2019-05-05T20:02:05.683Z,5.10
2019-05-05T20:04:35.667Z,5.03
2019-05-05T20:07:06.753Z,4.98
2019-05-05T20:09:47.202Z,4.87
2019-05-05T20:12:22.050Z,4.83
2019-05-05T20:14:51.287Z,4.82
2019-05-05T20:17:29.765Z,4.77
2019-05-05T20:20:06.326Z,4.73
2019-05-05T20:22:40.615Z,4.63
2019-05-05T20:25:09.920Z,4.48
2019-05-05T20:27:40.773Z,4.40
2019-05-05T20:30:11.307Z,4.32
2019-05-05T20:32:56.087Z,4.27
2019-05-05T20:35:29.288Z,4.16
2019-05-05T20:38:04.704Z,4.02
2019-05-05T20:40:36.342Z,4.04
2019-05-05T20:43:06.553Z,3.95
2019-05-05T20:45:37.266Z,3.92
2019-05-05T20:48:06.518Z,3.84
2019-05-05T20:50:44.105Z,3.81
2019-05-05T20:53:13.645Z,3.72
2019-05-05T20:55:44.704Z,3.61
2019-05-05T20:58:19.483Z,3.59
2019-05-05T21:00:55.007Z,3.61
2019-05-05T21:03:25.105Z,3.58
2019-05-05T21:05:55.091Z,3.55
2019-05-05T21:08:24.064Z,3.52
2019-05-05T21:10:53.774Z,3.54
2019-05-05T21:13:22.654Z,3.47
2019-05-05T21:15:53.758Z,3.37
2019-05-05T21:18:24.357Z,3.39
2019-05-05T21:21:01.590Z,3.31
2019-05-05T21:23:39.025Z,3.23
2019-05-05T21:26:17.842Z,3.23
2019-05-05T21:28:53.803Z,3.18
2019-05-05T21:31:23.972Z,3.10
2019-05-05T21:33:58.962Z,3.05
2019-05-05T21:36:28.146Z,3.02
2019-05-05T21:38:58.179Z,3.01
2019-05-05T21:41:27.074Z,2.90
2019-05-05T21:43:56.072Z,2.82
2019-05-05T21:46:27.037Z,2.77
2019-05-05T21:48:57.023Z,2.72
2019-05-05T21:51:43.637Z,2.70
2019-05-05T21:54:30.678Z,2.65
2019-05-05T21:57:24.320Z,2.65
2019-05-05T21:59:58.045Z,2.63
2019-05-05T22:02:23.982Z,2.55
2019-05-05T22:04:54.340Z,2.52
2019-05-05T22:07:24.105Z,2.50
2019-05-05T22:09:54.452Z,2.40
2019-05-05T22:12:24.351Z,2.34
2019-05-05T22:14:55.104Z,2.29
2019-05-05T22:17:24.080Z,2.28
2019-05-05T22:20:04.067Z,2.21
2019-05-05T22:22:36.467Z,2.14
2019-05-05T22:25:05.440Z,2.13
2019-05-05T22:27:34.672Z,2.12
2019-05-05T22:30:10.171Z,2.09
2019-05-05T22:32:34.449Z,2.01
2019-05-05T22:35:03.421Z,1.99
2019-05-05T22:37:34.350Z,1.95
2019-05-05T22:40:03.074Z,1.90
2019-05-05T22:42:34.112Z,1.88
2019-05-05T22:45:04.459Z,1.82
2019-05-05T22:47:34.542Z,1.76
2019-05-05T22:50:04.462Z,1.72
2019-05-05T22:52:34.516Z,1.70
2019-05-05T22:55:04.583Z,1.70
2019-05-05T22:57:34.507Z,1.70
2019-05-05T23:00:03.847Z,1.66
2019-05-05T23:02:35.177Z,1.66
2019-05-05T23:05:14.721Z,1.63
2019-05-05T23:07:43.881Z,1.58
2019-05-05T23:10:14.060Z,1.58
2019-05-05T23:12:43.988Z,1.58
2019-05-05T23:15:14.494Z,1.53
2019-05-05T23:18:05.088Z,1.56
2019-05-05T23:21:30.195Z,1.46
2019-05-05T23:24:18.234Z,1.54
2019-05-05T23:26:48.155Z,1.53
2019-05-05T23:29:17.052Z,1.42
2019-05-05T23:31:45.808Z,1.44
2019-05-05T23:34:14.871Z,1.36
2019-05-05T23:36:44.402Z,1.30
2019-05-05T23:39:13.634Z,1.30
2019-05-05T23:41:42.550Z,1.29
2019-05-05T23:44:11.755Z,1.29
2019-05-05T23:46:40.934Z,1.19
2019-05-05T23:49:09.794Z,1.18
2019-05-05T23:51:38.628Z,1.23
2019-05-05T23:54:07.666Z,1.17
2019-05-05T23:56:36.586Z,1.16
2019-05-05T23:59:05.498Z,1.16
